PWSweather.com
Personal Weather Stations
Station Observations
WD4JKH
Forsyth, GA 31029

Forsyth, GA 31029

Lat: 33.033225, Lon: -83.927995

Elevation: 709

Station Type: Davis Vantage VUE

High Low Average
Temperature 50.4°F10.2°C 40.0°F4.4°C 43.6°F6.4°C
Dew Point 40.5°F4.7°C 37.6°F3.1°C 38.6°F3.7°C
Winds 3.3 mph 5.3 kmh Calm Calm 1.0 mph NE1.6 kmh NE
Wind Gusts 6.0 mph9.7 kmh -- 3.0 mph4.8 kmh
Humidity 92% 65% 83%
Pressure 30.48 in1032.2 mb 30.34 in1027.4 mb -
Precipitation 0.00 in0.0 mm - -
Hour Temp Dew Point Humidity Winds Wind Gusts Pressure Precip Precip Rate Daily Precip Total
12:04 AM 50.4°F10.2°C 39.2°F4.0°C 65% 1.0 mph SE1.6 kmh SE 3.0 mph4.8 kmh 30.34 in1027.4 mb 0.00 in0.0 mm 0.00 in0.0 mm 0.00 in0.0 mm
12:09 AM 50.3°F10.2°C 39.5°F4.2°C 66% 1.0 mph SE1.6 kmh SE 3.0 mph4.8 kmh 30.34 in1027.4 mb 0.00 in0.0 mm 0.00 in0.0 mm 0.00 in0.0 mm
12:14 AM 50.3°F10.2°C 39.4°F4.1°C 66% 1.5 mph SE2.4 kmh SE 3.0 mph4.8 kmh 30.34 in1027.4 mb 0.00 in0.0 mm 0.00 in0.0 mm 0.00 in0.0 mm
12:19 AM 50.3°F10.2°C 39.5°F4.2°C 66% 1.4 mph SE2.3 kmh SE 4.0 mph6.4 kmh 30.34 in1027.4 mb 0.00 in0.0 mm 0.00 in0.0 mm 0.00 in0.0 mm
12:24 AM 50.1°F10.1°C 39.3°F4.1°C 66% 1.0 mph SE1.6 kmh SE 4.0 mph6.4 kmh 30.34 in1027.4 mb 0.00 in0.0 mm 0.00 in0.0 mm 0.00 in0.0 mm
12:29 AM 50.1°F10.1°C 39.3°F4.1°C 66% 1.0 mph SE1.6 kmh SE 4.0 mph6.4 kmh 30.34 in1027.4 mb 0.00 in0.0 mm 0.00 in0.0 mm 0.00 in0.0 mm
12:34 AM 50.0°F10.0°C 39.6°F4.2°C 67% Calm Calm 3.0 mph4.8 kmh 30.34 in1027.4 mb 0.00 in0.0 mm 0.00 in0.0 mm 0.00 in0.0 mm
12:39 AM 49.9°F9.9°C 39.5°F4.2°C 67% Calm Calm 1.0 mph1.6 kmh 30.35 in1027.8 mb 0.00 in0.0 mm 0.00 in0.0 mm 0.00 in0.0 mm
12:44 AM 49.7°F9.8°C 39.3°F4.1°C 67% Calm Calm 1.0 mph1.6 kmh 30.35 in1027.8 mb 0.00 in0.0 mm 0.00 in0.0 mm 0.00 in0.0 mm
12:49 AM 49.5°F9.7°C 39.1°F3.9°C 67% Calm Calm -- 30.35 in1027.8 mb 0.00 in0.0 mm 0.00 in0.0 mm 0.00 in0.0 mm
12:54 AM 49.3°F9.6°C 39.3°F4.1°C 68% Calm Calm -- 30.35 in1027.8 mb 0.00 in0.0 mm 0.00 in0.0 mm 0.00 in0.0 mm
12:59 AM 49.2°F9.6°C 39.2°F4.0°C 68% Calm Calm -- 30.35 in1027.8 mb 0.00 in0.0 mm 0.00 in0.0 mm 0.00 in0.0 mm
01:04 AM 48.9°F9.4°C 39.3°F4.1°C 69% Calm Calm -- 30.35 in1027.8 mb 0.00 in0.0 mm 0.00 in0.0 mm 0.00 in0.0 mm
01:09 AM 48.6°F9.2°C 39.4°F4.1°C 70% Calm Calm -- 30.35 in1027.8 mb 0.00 in0.0 mm 0.00 in0.0 mm 0.00 in0.0 mm
01:14 AM 48.2°F9.0°C 39.0°F3.9°C 70% Calm Calm -- 30.36 in1028.1 mb 0.00 in0.0 mm 0.00 in0.0 mm 0.00 in0.0 mm
01:19 AM 47.9°F8.8°C 39.0°F3.9°C 71% 1.0 mph NE1.6 kmh NE 1.0 mph1.6 kmh 30.36 in1028.1 mb 0.00 in0.0 mm 0.00 in0.0 mm 0.00 in0.0 mm
01:24 AM 47.7°F8.7°C 38.8°F3.8°C 71% Calm Calm 1.0 mph1.6 kmh 30.36 in1028.1 mb 0.00 in0.0 mm 0.00 in0.0 mm 0.00 in0.0 mm
01:29 AM 47.5°F8.6°C 38.7°F3.7°C 71% Calm Calm 1.0 mph1.6 kmh 30.36 in1028.1 mb 0.00 in0.0 mm 0.00 in0.0 mm 0.00 in0.0 mm
01:34 AM 47.5°F8.6°C 39.0°F3.9°C 72% Calm Calm 1.0 mph1.6 kmh 30.36 in1028.1 mb 0.00 in0.0 mm 0.00 in0.0 mm 0.00 in0.0 mm
01:39 AM 47.8°F8.8°C 38.9°F3.8°C 71% Calm Calm -- 30.36 in1028.1 mb 0.00 in0.0 mm 0.00 in0.0 mm 0.00 in0.0 mm
01:44 AM 48.0°F8.9°C 39.1°F3.9°C 71% Calm Calm -- 30.36 in1028.1 mb 0.00 in0.0 mm 0.00 in0.0 mm 0.00 in0.0 mm
01:49 AM 47.9°F8.8°C 38.9°F3.8°C 71% Calm Calm -- 30.36 in1028.1 mb 0.00 in0.0 mm 0.00 in0.0 mm 0.00 in0.0 mm
01:54 AM 47.8°F8.8°C 38.8°F3.8°C 71% Calm Calm -- 30.36 in1028.1 mb 0.00 in0.0 mm 0.00 in0.0 mm 0.00 in0.0 mm
01:59 AM 47.5°F8.6°C 39.0°F3.9°C 72% Calm Calm -- 30.36 in1028.1 mb 0.00 in0.0 mm 0.00 in0.0 mm 0.00 in0.0 mm
02:04 AM 47.3°F8.5°C 38.8°F3.8°C 72% Calm Calm -- 30.36 in1028.1 mb 0.00 in0.0 mm 0.00 in0.0 mm 0.00 in0.0 mm
02:09 AM 47.2°F8.4°C 39.1°F3.9°C 73% Calm Calm -- 30.37 in1028.4 mb 0.00 in0.0 mm 0.00 in0.0 mm 0.00 in0.0 mm
02:14 AM 47.2°F8.4°C 39.1°F3.9°C 73% Calm Calm -- 30.37 in1028.4 mb 0.00 in0.0 mm 0.00 in0.0 mm 0.00 in0.0 mm
02:18 AM 47.0°F8.3°C 38.9°F3.8°C 73% Calm Calm -- 30.37 in1028.4 mb 0.00 in0.0 mm 0.00 in0.0 mm 0.00 in0.0 mm
02:23 AM 46.7°F8.2°C 38.9°F3.8°C 74% Calm Calm 1.0 mph1.6 kmh 30.37 in1028.4 mb 0.00 in0.0 mm 0.00 in0.0 mm 0.00 in0.0 mm
02:28 AM 46.2°F7.9°C 38.7°F3.7°C 75% 1.0 mph NE1.6 kmh NE 1.0 mph1.6 kmh 30.37 in1028.4 mb 0.00 in0.0 mm 0.00 in0.0 mm 0.00 in0.0 mm
02:33 AM 45.7°F7.6°C 38.6°F3.7°C 76% 1.0 mph NNE1.6 kmh NNE 2.0 mph3.2 kmh 30.37 in1028.4 mb 0.00 in0.0 mm 0.00 in0.0 mm 0.00 in0.0 mm
02:38 AM 45.4°F7.4°C 39.0°F3.9°C 78% 1.7 mph NNE2.7 kmh NNE 3.0 mph4.8 kmh 30.37 in1028.4 mb 0.00 in0.0 mm 0.00 in0.0 mm 0.00 in0.0 mm
02:43 AM 45.0°F7.2°C 38.9°F3.8°C 79% 1.8 mph NE2.9 kmh NE 3.0 mph4.8 kmh 30.37 in1028.4 mb 0.00 in0.0 mm 0.00 in0.0 mm 0.00 in0.0 mm
02:48 AM 44.7°F7.1°C 38.9°F3.8°C 80% 1.4 mph NE2.3 kmh NE 3.0 mph4.8 kmh 30.37 in1028.4 mb 0.00 in0.0 mm 0.00 in0.0 mm 0.00 in0.0 mm
02:53 AM 44.5°F6.9°C 38.7°F3.7°C 80% 1.5 mph NE2.4 kmh NE 3.0 mph4.8 kmh 30.37 in1028.4 mb 0.00 in0.0 mm 0.00 in0.0 mm 0.00 in0.0 mm
02:58 AM 44.2°F6.8°C 38.8°F3.8°C 81% 1.5 mph NNE2.4 kmh NNE 3.0 mph4.8 kmh 30.37 in1028.4 mb 0.00 in0.0 mm 0.00 in0.0 mm 0.00 in0.0 mm
03:03 AM 44.1°F6.7°C 38.6°F3.7°C 81% 1.3 mph NNE2.1 kmh NNE 3.0 mph4.8 kmh 30.37 in1028.4 mb 0.00 in0.0 mm 0.00 in0.0 mm 0.00 in0.0 mm
03:08 AM 43.9°F6.6°C 38.8°F3.8°C 82% 1.3 mph NE2.1 kmh NE 3.0 mph4.8 kmh 30.37 in1028.4 mb 0.00 in0.0 mm 0.00 in0.0 mm 0.00 in0.0 mm
03:13 AM 43.9°F6.6°C 38.8°F3.8°C 82% 1.3 mph NE2.1 kmh NE 3.0 mph4.8 kmh 30.38 in1028.8 mb 0.00 in0.0 mm 0.00 in0.0 mm 0.00 in0.0 mm
03:18 AM 43.8°F6.6°C 38.7°F3.7°C 82% 1.6 mph NE2.6 kmh NE 4.0 mph6.4 kmh 30.38 in1028.8 mb 0.00 in0.0 mm 0.00 in0.0 mm 0.00 in0.0 mm
03:23 AM 43.7°F6.5°C 38.9°F3.8°C 83% 2.6 mph NE4.2 kmh NE 4.0 mph6.4 kmh 30.38 in1028.8 mb 0.00 in0.0 mm 0.00 in0.0 mm 0.00 in0.0 mm
03:28 AM 43.7°F6.5°C 38.9°F3.8°C 83% 2.9 mph NE4.7 kmh NE 5.0 mph8.0 kmh 30.38 in1028.8 mb 0.00 in0.0 mm 0.00 in0.0 mm 0.00 in0.0 mm
03:33 AM 43.6°F6.4°C 38.8°F3.8°C 83% 1.3 mph NE2.1 kmh NE 5.0 mph8.0 kmh 30.37 in1028.4 mb 0.00 in0.0 mm 0.00 in0.0 mm 0.00 in0.0 mm
03:38 AM 43.3°F6.3°C 38.8°F3.8°C 84% 1.0 mph NE1.6 kmh NE 5.0 mph8.0 kmh 30.38 in1028.8 mb 0.00 in0.0 mm 0.00 in0.0 mm 0.00 in0.0 mm
03:43 AM 43.1°F6.2°C 38.6°F3.7°C 84% 1.4 mph NNE2.3 kmh NNE 5.0 mph8.0 kmh 30.38 in1028.8 mb 0.00 in0.0 mm 0.00 in0.0 mm 0.00 in0.0 mm
03:48 AM 43.0°F6.1°C 38.8°F3.8°C 85% 1.8 mph NE2.9 kmh NE 3.0 mph4.8 kmh 30.38 in1028.8 mb 0.00 in0.0 mm 0.00 in0.0 mm 0.00 in0.0 mm
03:53 AM 42.9°F6.1°C 38.7°F3.7°C 85% Calm Calm 4.0 mph6.4 kmh 30.38 in1028.8 mb 0.00 in0.0 mm 0.00 in0.0 mm 0.00 in0.0 mm
03:58 AM 42.7°F5.9°C 38.5°F3.6°C 85% 1.0 mph NNE1.6 kmh NNE 4.0 mph6.4 kmh 30.38 in1028.8 mb 0.00 in0.0 mm 0.00 in0.0 mm 0.00 in0.0 mm
04:03 AM 42.6°F5.9°C 38.7°F3.7°C 86% 1.4 mph NE2.3 kmh NE 4.0 mph6.4 kmh 30.38 in1028.8 mb 0.00 in0.0 mm 0.00 in0.0 mm 0.00 in0.0 mm
04:08 AM 42.4°F5.8°C 38.5°F3.6°C 86% 1.0 mph NNE1.6 kmh NNE 3.0 mph4.8 kmh 30.38 in1028.8 mb 0.00 in0.0 mm 0.00 in0.0 mm 0.00 in0.0 mm
04:13 AM 42.4°F5.8°C 38.5°F3.6°C 86% 1.0 mph NNE1.6 kmh NNE 3.0 mph4.8 kmh 30.38 in1028.8 mb 0.00 in0.0 mm 0.00 in0.0 mm 0.00 in0.0 mm
04:18 AM 42.3°F5.7°C 38.4°F3.6°C 86% 1.0 mph NNE1.6 kmh NNE 3.0 mph4.8 kmh 30.38 in1028.8 mb 0.00 in0.0 mm 0.00 in0.0 mm 0.00 in0.0 mm
04:23 AM 42.3°F5.7°C 38.4°F3.6°C 86% Calm Calm 3.0 mph4.8 kmh 30.38 in1028.8 mb 0.00 in0.0 mm 0.00 in0.0 mm 0.00 in0.0 mm
04:28 AM 42.3°F5.7°C 38.4°F3.6°C 86% 1.2 mph NE1.9 kmh NE 2.0 mph3.2 kmh 30.38 in1028.8 mb 0.00 in0.0 mm 0.00 in0.0 mm 0.00 in0.0 mm
04:33 AM 42.3°F5.7°C 38.4°F3.6°C 86% 1.3 mph NE2.1 kmh NE 2.0 mph3.2 kmh 30.38 in1028.8 mb 0.00 in0.0 mm 0.00 in0.0 mm 0.00 in0.0 mm
04:38 AM 42.2°F5.7°C 38.3°F3.5°C 86% 1.4 mph NNE2.3 kmh NNE 2.0 mph3.2 kmh 30.38 in1028.8 mb 0.00 in0.0 mm 0.00 in0.0 mm 0.00 in0.0 mm
04:43 AM 42.1°F5.6°C 38.2°F3.4°C 86% Calm Calm 2.0 mph3.2 kmh 30.38 in1028.8 mb 0.00 in0.0 mm 0.00 in0.0 mm 0.00 in0.0 mm
04:48 AM 42.1°F5.6°C 38.5°F3.6°C 87% 1.3 mph NNE2.1 kmh NNE 2.0 mph3.2 kmh 30.38 in1028.8 mb 0.00 in0.0 mm 0.00 in0.0 mm 0.00 in0.0 mm
04:53 AM 42.1°F5.6°C 38.2°F3.4°C 86% 1.3 mph NE2.1 kmh NE 2.0 mph3.2 kmh 30.38 in1028.8 mb 0.00 in0.0 mm 0.00 in0.0 mm 0.00 in0.0 mm
04:58 AM 41.8°F5.4°C 38.2°F3.4°C 87% 1.7 mph NE2.7 kmh NE 4.0 mph6.4 kmh 30.38 in1028.8 mb 0.00 in0.0 mm 0.00 in0.0 mm 0.00 in0.0 mm
05:03 AM 41.6°F5.3°C 38.0°F3.3°C 87% 1.0 mph N1.6 kmh N 4.0 mph6.4 kmh 30.38 in1028.8 mb 0.00 in0.0 mm 0.00 in0.0 mm 0.00 in0.0 mm
05:08 AM 41.4°F5.2°C 37.8°F3.2°C 87% 1.0 mph NNE1.6 kmh NNE 4.0 mph6.4 kmh 30.38 in1028.8 mb 0.00 in0.0 mm 0.00 in0.0 mm 0.00 in0.0 mm
05:13 AM 41.3°F5.2°C 38.0°F3.3°C 88% 1.0 mph NNE1.6 kmh NNE 4.0 mph6.4 kmh 30.38 in1028.8 mb 0.00 in0.0 mm 0.00 in0.0 mm 0.00 in0.0 mm
05:18 AM 41.3°F5.2°C 38.0°F3.3°C 88% Calm Calm 2.0 mph3.2 kmh 30.38 in1028.8 mb 0.00 in0.0 mm 0.00 in0.0 mm 0.00 in0.0 mm
05:23 AM 41.3°F5.2°C 38.0°F3.3°C 88% Calm Calm 2.0 mph3.2 kmh 30.38 in1028.8 mb 0.00 in0.0 mm 0.00 in0.0 mm 0.00 in0.0 mm
05:28 AM 41.7°F5.4°C 38.4°F3.6°C 88% 1.4 mph NNE2.3 kmh NNE 2.0 mph3.2 kmh 30.39 in1029.1 mb 0.00 in0.0 mm 0.00 in0.0 mm 0.00 in0.0 mm
05:33 AM 41.8°F5.4°C 38.5°F3.6°C 88% 1.0 mph NNE1.6 kmh NNE 2.0 mph3.2 kmh 30.39 in1029.1 mb 0.00 in0.0 mm 0.00 in0.0 mm 0.00 in0.0 mm
05:38 AM 41.8°F5.4°C 38.2°F3.4°C 87% 1.2 mph NNE1.9 kmh NNE 2.0 mph3.2 kmh 30.39 in1029.1 mb 0.00 in0.0 mm 0.00 in0.0 mm 0.00 in0.0 mm
05:43 AM 41.7°F5.4°C 38.4°F3.6°C 88% 1.0 mph NNE1.6 kmh NNE 2.0 mph3.2 kmh 30.39 in1029.1 mb 0.00 in0.0 mm 0.00 in0.0 mm 0.00 in0.0 mm
05:48 AM 41.7°F5.4°C 38.4°F3.6°C 88% 1.0 mph NNE1.6 kmh NNE 2.0 mph3.2 kmh 30.39 in1029.1 mb 0.00 in0.0 mm 0.00 in0.0 mm 0.00 in0.0 mm
05:53 AM 41.9°F5.5°C 38.6°F3.7°C 88% 1.0 mph NE1.6 kmh NE 2.0 mph3.2 kmh 30.39 in1029.1 mb 0.00 in0.0 mm 0.00 in0.0 mm 0.00 in0.0 mm
05:58 AM 41.8°F5.4°C 38.5°F3.6°C 88% Calm Calm 2.0 mph3.2 kmh 30.39 in1029.1 mb 0.00 in0.0 mm 0.00 in0.0 mm 0.00 in0.0 mm
06:03 AM 41.7°F5.4°C 38.4°F3.6°C 88% 1.0 mph NNE1.6 kmh NNE 2.0 mph3.2 kmh 30.39 in1029.1 mb 0.00 in0.0 mm 0.00 in0.0 mm 0.00 in0.0 mm
06:08 AM 41.5°F5.3°C 38.2°F3.4°C 88% 1.2 mph NNE1.9 kmh NNE 2.0 mph3.2 kmh 30.40 in1029.5 mb 0.00 in0.0 mm 0.00 in0.0 mm 0.00 in0.0 mm
06:13 AM 41.3°F5.2°C 38.3°F3.5°C 89% 1.0 mph N1.6 kmh N 2.0 mph3.2 kmh 30.40 in1029.5 mb 0.00 in0.0 mm 0.00 in0.0 mm 0.00 in0.0 mm
06:18 AM 41.2°F5.1°C 38.2°F3.4°C 89% 1.4 mph NNE2.3 kmh NNE 2.0 mph3.2 kmh 30.40 in1029.5 mb 0.00 in0.0 mm 0.00 in0.0 mm 0.00 in0.0 mm
06:23 AM 41.0°F5.0°C 38.0°F3.3°C 89% Calm Calm 2.0 mph3.2 kmh 30.40 in1029.5 mb 0.00 in0.0 mm 0.00 in0.0 mm 0.00 in0.0 mm
06:28 AM 40.9°F4.9°C 38.2°F3.4°C 90% Calm Calm 2.0 mph3.2 kmh 30.41 in1029.8 mb 0.00 in0.0 mm 0.00 in0.0 mm 0.00 in0.0 mm
06:33 AM 41.0°F5.0°C 38.2°F3.4°C 90% 1.0 mph NE1.6 kmh NE 2.0 mph3.2 kmh 30.41 in1029.8 mb 0.00 in0.0 mm 0.00 in0.0 mm 0.00 in0.0 mm
06:38 AM 41.2°F5.1°C 38.4°F3.6°C 90% 1.4 mph NE2.3 kmh NE 2.0 mph3.2 kmh 30.41 in1029.8 mb 0.00 in0.0 mm 0.00 in0.0 mm 0.00 in0.0 mm
06:43 AM 41.5°F5.3°C 38.5°F3.6°C 89% 1.1 mph NE1.8 kmh NE 2.0 mph3.2 kmh 30.41 in1029.8 mb 0.00 in0.0 mm 0.00 in0.0 mm 0.00 in0.0 mm
06:48 AM 41.6°F5.3°C 38.6°F3.7°C 89% Calm Calm 2.0 mph3.2 kmh 30.41 in1029.8 mb 0.00 in0.0 mm 0.00 in0.0 mm 0.00 in0.0 mm
06:53 AM 41.5°F5.3°C 38.5°F3.6°C 89% 1.3 mph NE2.1 kmh NE 2.0 mph3.2 kmh 30.41 in1029.8 mb 0.00 in0.0 mm 0.00 in0.0 mm 0.00 in0.0 mm
06:58 AM 41.3°F5.2°C 38.3°F3.5°C 89% 1.0 mph NNE1.6 kmh NNE 2.0 mph3.2 kmh 30.42 in1030.1 mb 0.00 in0.0 mm 0.00 in0.0 mm 0.00 in0.0 mm
07:03 AM 41.1°F5.1°C 38.1°F3.4°C 89% Calm Calm 2.0 mph3.2 kmh 30.42 in1030.1 mb 0.00 in0.0 mm 0.00 in0.0 mm 0.00 in0.0 mm
07:08 AM 40.9°F4.9°C 38.2°F3.4°C 90% 1.2 mph NE1.9 kmh NE 2.0 mph3.2 kmh 30.42 in1030.1 mb 0.00 in0.0 mm 0.00 in0.0 mm 0.00 in0.0 mm
07:13 AM 40.8°F4.9°C 38.1°F3.4°C 90% 1.5 mph NNE2.4 kmh NNE 3.0 mph4.8 kmh 30.42 in1030.1 mb 0.00 in0.0 mm 0.00 in0.0 mm 0.00 in0.0 mm
07:18 AM 40.8°F4.9°C 38.1°F3.4°C 90% 1.0 mph NE1.6 kmh NE 3.0 mph4.8 kmh 30.42 in1030.1 mb 0.00 in0.0 mm 0.00 in0.0 mm 0.00 in0.0 mm
07:23 AM 40.9°F4.9°C 38.2°F3.4°C 90% 1.5 mph ENE2.4 kmh ENE 3.0 mph4.8 kmh 30.42 in1030.1 mb 0.00 in0.0 mm 0.00 in0.0 mm 0.00 in0.0 mm
07:28 AM 40.9°F4.9°C 38.2°F3.4°C 90% 1.2 mph E1.9 kmh E 3.0 mph4.8 kmh 30.42 in1030.1 mb 0.00 in0.0 mm 0.00 in0.0 mm 0.00 in0.0 mm
07:33 AM 40.8°F4.9°C 38.1°F3.4°C 90% 1.0 mph ENE1.6 kmh ENE 3.0 mph4.8 kmh 30.42 in1030.1 mb 0.00 in0.0 mm 0.00 in0.0 mm 0.00 in0.0 mm
07:38 AM 40.7°F4.8°C 38.2°F3.4°C 91% 1.3 mph ENE2.1 kmh ENE 3.0 mph4.8 kmh 30.43 in1030.5 mb 0.00 in0.0 mm 0.00 in0.0 mm 0.00 in0.0 mm
07:43 AM 40.7°F4.8°C 38.2°F3.4°C 91% 1.0 mph NE1.6 kmh NE 4.0 mph6.4 kmh 30.43 in1030.5 mb 0.00 in0.0 mm 0.00 in0.0 mm 0.00 in0.0 mm
07:48 AM 40.5°F4.7°C 38.0°F3.3°C 91% Calm Calm 4.0 mph6.4 kmh 30.43 in1030.5 mb 0.00 in0.0 mm 0.00 in0.0 mm 0.00 in0.0 mm
07:53 AM 40.3°F4.6°C 37.8°F3.2°C 91% 1.0 mph NE1.6 kmh NE 4.0 mph6.4 kmh 30.43 in1030.5 mb 0.00 in0.0 mm 0.00 in0.0 mm 0.00 in0.0 mm
07:58 AM 40.3°F4.6°C 37.8°F3.2°C 91% 1.0 mph NE1.6 kmh NE 4.0 mph6.4 kmh 30.44 in1030.8 mb 0.00 in0.0 mm 0.00 in0.0 mm 0.00 in0.0 mm
08:03 AM 40.3°F4.6°C 37.8°F3.2°C 91% 1.5 mph NE2.4 kmh NE 2.0 mph3.2 kmh 30.44 in1030.8 mb 0.00 in0.0 mm 0.00 in0.0 mm 0.00 in0.0 mm
08:08 AM 40.2°F4.6°C 37.7°F3.2°C 91% 2.0 mph NNE3.2 kmh NNE 3.0 mph4.8 kmh 30.44 in1030.8 mb 0.00 in0.0 mm 0.00 in0.0 mm 0.00 in0.0 mm
08:13 AM 40.1°F4.5°C 37.6°F3.1°C 91% 1.0 mph NE1.6 kmh NE 3.0 mph4.8 kmh 30.44 in1030.8 mb 0.00 in0.0 mm 0.00 in0.0 mm 0.00 in0.0 mm
08:17 AM 40.0°F4.4°C 37.8°F3.2°C 92% 1.3 mph NNE2.1 kmh NNE 3.0 mph4.8 kmh 30.44 in1030.8 mb 0.00 in0.0 mm 0.00 in0.0 mm 0.00 in0.0 mm
08:22 AM 40.0°F4.4°C 37.8°F3.2°C 92% 1.3 mph NE2.1 kmh NE 4.0 mph6.4 kmh 30.44 in1030.8 mb 0.00 in0.0 mm 0.00 in0.0 mm 0.00 in0.0 mm
08:27 AM 40.2°F4.6°C 38.0°F3.3°C 92% 1.3 mph NE2.1 kmh NE 4.0 mph6.4 kmh 30.44 in1030.8 mb 0.00 in0.0 mm 0.00 in0.0 mm 0.00 in0.0 mm
08:32 AM 40.2°F4.6°C 38.1°F3.4°C 92% 2.9 mph NE4.7 kmh NE 5.0 mph8.0 kmh 30.44 in1030.8 mb 0.00 in0.0 mm 0.00 in0.0 mm 0.00 in0.0 mm
08:37 AM 40.2°F4.6°C 38.1°F3.4°C 92% 2.3 mph NE3.7 kmh NE 5.0 mph8.0 kmh 30.45 in1031.2 mb 0.00 in0.0 mm 0.00 in0.0 mm 0.00 in0.0 mm
08:42 AM 40.3°F4.6°C 38.1°F3.4°C 92% 1.3 mph NE2.1 kmh NE 5.0 mph8.0 kmh 30.45 in1031.2 mb 0.00 in0.0 mm 0.00 in0.0 mm 0.00 in0.0 mm
08:47 AM 40.5°F4.7°C 38.3°F3.5°C 92% 1.1 mph NE1.8 kmh NE 5.0 mph8.0 kmh 30.45 in1031.2 mb 0.00 in0.0 mm 0.00 in0.0 mm 0.00 in0.0 mm
08:52 AM 40.6°F4.8°C 38.4°F3.6°C 92% 1.6 mph NE2.6 kmh NE 5.0 mph8.0 kmh 30.45 in1031.2 mb 0.00 in0.0 mm 0.00 in0.0 mm 0.00 in0.0 mm
08:57 AM 40.9°F4.9°C 38.8°F3.8°C 92% 1.6 mph NE2.6 kmh NE 4.0 mph6.4 kmh 30.46 in1031.5 mb 0.00 in0.0 mm 0.00 in0.0 mm 0.00 in0.0 mm
09:02 AM 41.0°F5.0°C 38.5°F3.6°C 91% 1.7 mph NE2.7 kmh NE 4.0 mph6.4 kmh 30.46 in1031.5 mb 0.00 in0.0 mm 0.00 in0.0 mm 0.00 in0.0 mm
09:07 AM 41.2°F5.1°C 38.7°F3.7°C 91% 1.2 mph NE1.9 kmh NE 4.0 mph6.4 kmh 30.46 in1031.5 mb 0.00 in0.0 mm 0.00 in0.0 mm 0.00 in0.0 mm
09:12 AM 41.3°F5.2°C 38.5°F3.6°C 90% 1.0 mph NE1.6 kmh NE 4.0 mph6.4 kmh 30.46 in1031.5 mb 0.00 in0.0 mm 0.00 in0.0 mm 0.00 in0.0 mm
09:17 AM 41.6°F5.3°C 38.8°F3.8°C 90% 2.7 mph NNE4.3 kmh NNE 4.0 mph6.4 kmh 30.46 in1031.5 mb 0.00 in0.0 mm 0.00 in0.0 mm 0.00 in0.0 mm
09:22 AM 41.9°F5.5°C 39.1°F3.9°C 90% 1.1 mph NE1.8 kmh NE 4.0 mph6.4 kmh 30.46 in1031.5 mb 0.00 in0.0 mm 0.00 in0.0 mm 0.00 in0.0 mm
09:27 AM 42.2°F5.7°C 39.2°F4.0°C 89% 1.1 mph NE1.8 kmh NE 4.0 mph6.4 kmh 30.47 in1031.8 mb 0.00 in0.0 mm 0.00 in0.0 mm 0.00 in0.0 mm
09:32 AM 42.5°F5.8°C 39.5°F4.2°C 89% 1.3 mph NE2.1 kmh NE 4.0 mph6.4 kmh 30.47 in1031.8 mb 0.00 in0.0 mm 0.00 in0.0 mm 0.00 in0.0 mm
09:37 AM 42.8°F6.0°C 39.5°F4.2°C 88% 1.3 mph NE2.1 kmh NE 3.0 mph4.8 kmh 30.47 in1031.8 mb 0.00 in0.0 mm 0.00 in0.0 mm 0.00 in0.0 mm
09:42 AM 43.2°F6.2°C 39.9°F4.4°C 88% 1.7 mph NE2.7 kmh NE 3.0 mph4.8 kmh 30.47 in1031.8 mb 0.00 in0.0 mm 0.00 in0.0 mm 0.00 in0.0 mm
09:47 AM 43.7°F6.5°C 39.8°F4.3°C 86% 1.6 mph NE2.6 kmh NE 3.0 mph4.8 kmh 30.47 in1031.8 mb 0.00 in0.0 mm 0.00 in0.0 mm 0.00 in0.0 mm
09:52 AM 44.4°F6.9°C 40.5°F4.7°C 86% 1.0 mph ENE1.6 kmh ENE 3.0 mph4.8 kmh 30.48 in1032.2 mb 0.00 in0.0 mm 0.00 in0.0 mm 0.00 in0.0 mm
09:57 AM 44.8°F7.1°C 39.0°F3.9°C 80% 3.3 mph E5.3 kmh E 6.0 mph9.7 kmh 30.48 in1032.2 mb 0.00 in0.0 mm 0.00 in0.0 mm 0.00 in0.0 mm
10:02 AM 45.2°F7.3°C 39.4°F4.1°C 80% 1.8 mph E2.9 kmh E 6.0 mph9.7 kmh 30.48 in1032.2 mb 0.00 in0.0 mm 0.00 in0.0 mm 0.00 in0.0 mm
10:07 AM 45.6°F7.6°C 39.2°F4.0°C 78% 4.8 mph E7.7 kmh E 7.0 mph11.3 kmh 30.48 in1032.2 mb 0.00 in0.0 mm 0.00 in0.0 mm 0.00 in0.0 mm
10:12 AM 46.2°F7.9°C 39.4°F4.1°C 77% 2.2 mph ESE3.5 kmh ESE 7.0 mph11.3 kmh 30.48 in1032.2 mb 0.00 in0.0 mm 0.00 in0.0 mm 0.00 in0.0 mm
10:17 AM 46.5°F8.1°C 39.7°F4.3°C 77% 3.7 mph E6.0 kmh E 7.0 mph11.3 kmh 30.48 in1032.2 mb 0.00 in0.0 mm 0.00 in0.0 mm 0.00 in0.0 mm
10:23 AM 46.6°F8.1°C 39.8°F4.3°C 77% 3.5 mph E5.6 kmh E 8.0 mph12.9 kmh 30.48 in1032.2 mb 0.00 in0.0 mm 0.00 in0.0 mm 0.00 in0.0 mm
10:28 AM 47.1°F8.4°C 40.0°F4.4°C 76% 2.3 mph E3.7 kmh E 8.0 mph12.9 kmh 30.48 in1032.2 mb 0.00 in0.0 mm 0.00 in0.0 mm 0.00 in0.0 mm
10:33 AM 47.5°F8.6°C 40.0°F4.4°C 75% 3.2 mph E5.1 kmh E 8.0 mph12.9 kmh 30.48 in1032.2 mb 0.00 in0.0 mm 0.00 in0.0 mm 0.00 in0.0 mm
10:38 AM 47.6°F8.7°C 40.1°F4.5°C 75% 1.6 mph E2.6 kmh E 8.0 mph12.9 kmh 30.48 in1032.2 mb 0.00 in0.0 mm 0.00 in0.0 mm 0.00 in0.0 mm
10:44 AM 48.1°F8.9°C 40.3°F4.6°C 74% 3.7 mph ENE6.0 kmh ENE 7.0 mph11.3 kmh 30.47 in1031.8 mb 0.00 in0.0 mm 0.00 in0.0 mm 0.00 in0.0 mm
10:49 AM 48.5°F9.2°C 40.3°F4.6°C 73% 1.3 mph ENE2.1 kmh ENE 7.0 mph11.3 kmh 30.47 in1031.8 mb 0.00 in0.0 mm 0.00 in0.0 mm 0.00 in0.0 mm
10:54 AM 49.0°F9.4°C 40.1°F4.5°C 71% 3.7 mph ENE6.0 kmh ENE 7.0 mph11.3 kmh 30.47 in1031.8 mb 0.00 in0.0 mm 0.00 in0.0 mm 0.00 in0.0 mm
10:59 AM 49.0°F9.4°C 39.7°F4.3°C 70% 3.6 mph E5.8 kmh E 7.0 mph11.3 kmh 30.47 in1031.8 mb 0.00 in0.0 mm 0.00 in0.0 mm 0.00 in0.0 mm
11:04 AM 49.2°F9.6°C 39.9°F4.4°C 70% 1.3 mph E2.1 kmh E 10.0 mph16.1 kmh 30.47 in1031.8 mb 0.00 in0.0 mm 0.00 in0.0 mm 0.00 in0.0 mm
11:09 AM 49.4°F9.7°C 39.8°F4.3°C 69% 3.5 mph NE5.6 kmh NE 10.0 mph16.1 kmh 30.47 in1031.8 mb 0.00 in0.0 mm 0.00 in0.0 mm 0.00 in0.0 mm
11:15 AM 49.6°F9.8°C 39.6°F4.2°C 68% 3.3 mph E5.3 kmh E 10.0 mph16.1 kmh 30.46 in1031.5 mb 0.00 in0.0 mm 0.00 in0.0 mm 0.00 in0.0 mm
11:20 AM 49.8°F9.9°C 39.8°F4.3°C 68% 3.7 mph E6.0 kmh E 8.0 mph12.9 kmh 30.46 in1031.5 mb 0.00 in0.0 mm 0.00 in0.0 mm 0.00 in0.0 mm
11:25 AM 50.1°F10.1°C 39.7°F4.3°C 67% 4.3 mph E6.9 kmh E 8.0 mph12.9 kmh 30.46 in1031.5 mb 0.00 in0.0 mm 0.00 in0.0 mm 0.00 in0.0 mm
11:30 AM 50.7°F10.4°C 39.9°F4.4°C 66% 3.9 mph E6.3 kmh E 8.0 mph12.9 kmh 30.45 in1031.2 mb 0.00 in0.0 mm 0.00 in0.0 mm 0.00 in0.0 mm
11:35 AM 51.0°F10.6°C 39.8°F4.3°C 65% 3.7 mph ENE6.0 kmh ENE 10.0 mph16.1 kmh 30.45 in1031.2 mb 0.00 in0.0 mm 0.00 in0.0 mm 0.00 in0.0 mm
11:41 AM 51.1°F10.6°C 39.9°F4.4°C 65% 4.5 mph E7.2 kmh E 10.0 mph16.1 kmh 30.45 in1031.2 mb 0.00 in0.0 mm 0.00 in0.0 mm 0.00 in0.0 mm
11:46 AM 51.1°F10.6°C 39.9°F4.4°C 65% 2.2 mph ENE3.5 kmh ENE 10.0 mph16.1 kmh 30.44 in1030.8 mb 0.00 in0.0 mm 0.00 in0.0 mm 0.00 in0.0 mm
11:51 AM 51.5°F10.8°C 39.8°F4.3°C 64% 4.3 mph ENE6.9 kmh ENE 10.0 mph16.1 kmh 30.44 in1030.8 mb 0.00 in0.0 mm 0.00 in0.0 mm 0.00 in0.0 mm
11:56 AM 52.0°F11.1°C 40.7°F4.8°C 65% 2.9 mph E4.7 kmh E 10.0 mph16.1 kmh 30.44 in1030.8 mb 0.00 in0.0 mm 0.00 in0.0 mm 0.00 in0.0 mm
12:02 PM 52.4°F11.3°C 40.7°F4.8°C 64% 4.7 mph ENE7.6 kmh ENE 9.0 mph14.5 kmh 30.44 in1030.8 mb 0.00 in0.0 mm 0.00 in0.0 mm 0.00 in0.0 mm
12:07 PM 52.4°F11.3°C 40.2°F4.6°C 63% 4.0 mph E6.4 kmh E 9.0 mph14.5 kmh 30.43 in1030.5 mb 0.00 in0.0 mm 0.00 in0.0 mm 0.00 in0.0 mm
12:12 PM 52.9°F11.6°C 41.0°F5.0°C 64% 2.6 mph E4.2 kmh E 8.0 mph12.9 kmh 30.43 in1030.5 mb 0.00 in0.0 mm 0.00 in0.0 mm 0.00 in0.0 mm
12:17 PM 53.5°F11.9°C 41.3°F5.2°C 63% 4.0 mph ENE6.4 kmh ENE 8.0 mph12.9 kmh 30.43 in1030.5 mb 0.00 in0.0 mm 0.00 in0.0 mm 0.00 in0.0 mm
12:22 PM 53.5°F11.9°C 40.9°F4.9°C 62% 2.9 mph NE4.7 kmh NE 9.0 mph14.5 kmh 30.42 in1030.1 mb 0.00 in0.0 mm 0.00 in0.0 mm 0.00 in0.0 mm
12:28 PM 54.0°F12.2°C 41.4°F5.2°C 62% 1.6 mph E2.6 kmh E 9.0 mph14.5 kmh 30.42 in1030.1 mb 0.00 in0.0 mm 0.00 in0.0 mm 0.00 in0.0 mm
12:33 PM 54.3°F12.4°C 41.2°F5.1°C 61% 5.6 mph NE9.0 kmh NE 10.0 mph16.1 kmh 30.42 in1030.1 mb 0.00 in0.0 mm 0.00 in0.0 mm 0.00 in0.0 mm
12:38 PM 54.5°F12.5°C 41.4°F5.2°C 61% 3.2 mph ENE5.1 kmh ENE 12.0 mph19.3 kmh 30.42 in1030.1 mb 0.00 in0.0 mm 0.00 in0.0 mm 0.00 in0.0 mm
12:43 PM 55.1°F12.8°C 41.1°F5.1°C 59% 3.2 mph NE5.1 kmh NE 12.0 mph19.3 kmh 30.41 in1029.8 mb 0.00 in0.0 mm 0.00 in0.0 mm 0.00 in0.0 mm
12:48 PM 55.1°F12.8°C 41.1°F5.1°C 59% 7.4 mph ENE11.9 kmh ENE 14.0 mph22.5 kmh 30.41 in1029.8 mb 0.00 in0.0 mm 0.00 in0.0 mm 0.00 in0.0 mm
12:54 PM 55.1°F12.8°C 41.1°F5.1°C 59% 7.4 mph NE11.9 kmh NE 15.0 mph24.1 kmh 30.41 in1029.8 mb 0.00 in0.0 mm 0.00 in0.0 mm 0.00 in0.0 mm
12:59 PM 55.5°F13.1°C 41.1°F5.1°C 58% 8.2 mph ENE13.2 kmh ENE 15.0 mph24.1 kmh 30.41 in1029.8 mb 0.00 in0.0 mm 0.00 in0.0 mm 0.00 in0.0 mm
01:04 PM 55.6°F13.1°C 41.5°F5.3°C 59% 4.9 mph ENE7.9 kmh ENE 15.0 mph24.1 kmh 30.40 in1029.5 mb 0.00 in0.0 mm 0.00 in0.0 mm 0.00 in0.0 mm
01:09 PM 55.9°F13.3°C 41.4°F5.2°C 58% 2.9 mph ENE4.7 kmh ENE 15.0 mph24.1 kmh 30.40 in1029.5 mb 0.00 in0.0 mm 0.00 in0.0 mm 0.00 in0.0 mm
01:14 PM 55.8°F13.2°C 40.9°F4.9°C 57% 4.8 mph ENE7.7 kmh ENE 13.0 mph20.9 kmh 30.40 in1029.5 mb 0.00 in0.0 mm 0.00 in0.0 mm 0.00 in0.0 mm
01:19 PM 55.8°F13.2°C 41.2°F5.1°C 58% 3.8 mph E6.1 kmh E 13.0 mph20.9 kmh 30.40 in1029.5 mb 0.00 in0.0 mm 0.00 in0.0 mm 0.00 in0.0 mm
01:24 PM 55.8°F13.2°C 40.9°F4.9°C 57% 4.3 mph E6.9 kmh E 13.0 mph20.9 kmh 30.39 in1029.1 mb 0.00 in0.0 mm 0.00 in0.0 mm 0.00 in0.0 mm
01:29 PM 56.0°F13.3°C 42.0°F5.6°C 59% 3.0 mph E4.8 kmh E 12.0 mph19.3 kmh 30.39 in1029.1 mb 0.00 in0.0 mm 0.00 in0.0 mm 0.00 in0.0 mm
01:34 PM 56.6°F13.7°C 42.1°F5.6°C 58% 3.5 mph E5.6 kmh E 11.0 mph17.7 kmh 30.39 in1029.1 mb 0.00 in0.0 mm 0.00 in0.0 mm 0.00 in0.0 mm
01:39 PM 56.6°F13.7°C 41.6°F5.3°C 57% 4.0 mph E6.4 kmh E 11.0 mph17.7 kmh 30.39 in1029.1 mb 0.00 in0.0 mm 0.00 in0.0 mm 0.00 in0.0 mm
01:44 PM 56.4°F13.6°C 41.4°F5.2°C 57% 2.6 mph E4.2 kmh E 10.0 mph16.1 kmh 30.39 in1029.1 mb 0.00 in0.0 mm 0.00 in0.0 mm 0.00 in0.0 mm
01:50 PM 56.6°F13.7°C 41.6°F5.3°C 57% 6.3 mph E10.1 kmh E 10.0 mph16.1 kmh 30.39 in1029.1 mb 0.00 in0.0 mm 0.00 in0.0 mm 0.00 in0.0 mm
01:55 PM 56.7°F13.7°C 41.7°F5.4°C 57% 5.6 mph E9.0 kmh E 10.0 mph16.1 kmh 30.39 in1029.1 mb 0.00 in0.0 mm 0.00 in0.0 mm 0.00 in0.0 mm
02:00 PM 56.9°F13.8°C 41.9°F5.5°C 57% 5.7 mph E9.2 kmh E 10.0 mph16.1 kmh 30.39 in1029.1 mb 0.00 in0.0 mm 0.00 in0.0 mm 0.00 in0.0 mm
02:05 PM 56.8°F13.8°C 41.8°F5.4°C 57% 5.6 mph E9.0 kmh E 10.0 mph16.1 kmh 30.38 in1028.8 mb 0.00 in0.0 mm 0.00 in0.0 mm 0.00 in0.0 mm
02:11 PM 56.7°F13.7°C 41.3°F5.2°C 56% 4.9 mph E7.9 kmh E 13.0 mph20.9 kmh 30.39 in1029.1 mb 0.00 in0.0 mm 0.00 in0.0 mm 0.00 in0.0 mm
02:16 PM 56.7°F13.7°C 41.7°F5.4°C 57% 4.2 mph E6.8 kmh E 13.0 mph20.9 kmh 30.38 in1028.8 mb 0.00 in0.0 mm 0.00 in0.0 mm 0.00 in0.0 mm
02:21 PM 57.0°F13.9°C 41.5°F5.3°C 56% 4.9 mph E7.9 kmh E 13.0 mph20.9 kmh 30.38 in1028.8 mb 0.00 in0.0 mm 0.00 in0.0 mm 0.00 in0.0 mm
02:26 PM 57.2°F14.0°C 41.7°F5.4°C 56% 2.5 mph E4.0 kmh E 13.0 mph20.9 kmh 30.38 in1028.8 mb 0.00 in0.0 mm 0.00 in0.0 mm 0.00 in0.0 mm
02:31 PM 57.4°F14.1°C 41.9°F5.5°C 56% 3.7 mph E6.0 kmh E 13.0 mph20.9 kmh 30.38 in1028.8 mb 0.00 in0.0 mm 0.00 in0.0 mm 0.00 in0.0 mm
02:37 PM 57.1°F13.9°C 41.2°F5.1°C 55% 6.8 mph E10.9 kmh E 11.0 mph17.7 kmh 30.38 in1028.8 mb 0.00 in0.0 mm 0.00 in0.0 mm 0.00 in0.0 mm
02:42 PM 57.5°F14.2°C 42.0°F5.6°C 56% 1.3 mph E2.1 kmh E 11.0 mph17.7 kmh 30.38 in1028.8 mb 0.00 in0.0 mm 0.00 in0.0 mm 0.00 in0.0 mm
02:47 PM 57.6°F14.2°C 41.1°F5.1°C 54% 8.3 mph ENE13.4 kmh ENE 12.0 mph19.3 kmh 30.38 in1028.8 mb 0.00 in0.0 mm 0.00 in0.0 mm 0.00 in0.0 mm
02:52 PM 57.5°F14.2°C 41.5°F5.3°C 55% 5.8 mph ENE9.3 kmh ENE 12.0 mph19.3 kmh 30.37 in1028.4 mb 0.00 in0.0 mm 0.00 in0.0 mm 0.00 in0.0 mm
02:57 PM 57.6°F14.2°C 41.6°F5.3°C 55% 6.1 mph E9.8 kmh E 12.0 mph19.3 kmh 30.37 in1028.4 mb 0.00 in0.0 mm 0.00 in0.0 mm 0.00 in0.0 mm
03:03 PM 57.5°F14.2°C 41.5°F5.3°C 55% 10.6 mph E17.1 kmh E 15.0 mph24.1 kmh 30.37 in1028.4 mb 0.00 in0.0 mm 0.00 in0.0 mm 0.00 in0.0 mm
03:08 PM 57.5°F14.2°C 41.5°F5.3°C 55% 6.6 mph E10.6 kmh E 15.0 mph24.1 kmh 30.37 in1028.4 mb 0.00 in0.0 mm 0.00 in0.0 mm 0.00 in0.0 mm
03:13 PM 57.7°F14.3°C 41.7°F5.4°C 55% 7.1 mph ENE11.4 kmh ENE 15.0 mph24.1 kmh 30.37 in1028.4 mb 0.00 in0.0 mm 0.00 in0.0 mm 0.00 in0.0 mm
03:18 PM 57.8°F14.3°C 41.8°F5.4°C 55% 5.8 mph NE9.3 kmh NE 15.0 mph24.1 kmh 30.37 in1028.4 mb 0.00 in0.0 mm 0.00 in0.0 mm 0.00 in0.0 mm
03:23 PM 57.9°F14.4°C 41.9°F5.5°C 55% 5.6 mph ENE9.0 kmh ENE 15.0 mph24.1 kmh 30.37 in1028.4 mb 0.00 in0.0 mm 0.00 in0.0 mm 0.00 in0.0 mm
03:29 PM 58.0°F14.4°C 41.5°F5.3°C 54% 9.0 mph ENE14.5 kmh ENE 14.0 mph22.5 kmh 30.37 in1028.4 mb 0.00 in0.0 mm 0.00 in0.0 mm 0.00 in0.0 mm
03:34 PM 57.9°F14.4°C 41.9°F5.5°C 55% 5.2 mph E8.4 kmh E 14.0 mph22.5 kmh 30.37 in1028.4 mb 0.00 in0.0 mm 0.00 in0.0 mm 0.00 in0.0 mm
03:39 PM 57.9°F14.4°C 41.9°F5.5°C 55% 6.1 mph ENE9.8 kmh ENE 14.0 mph22.5 kmh 30.37 in1028.4 mb 0.00 in0.0 mm 0.00 in0.0 mm 0.00 in0.0 mm
03:44 PM 58.1°F14.5°C 42.1°F5.6°C 55% 6.7 mph ENE10.8 kmh ENE 15.0 mph24.1 kmh 30.37 in1028.4 mb 0.00 in0.0 mm 0.00 in0.0 mm 0.00 in0.0 mm
03:49 PM 58.2°F14.6°C 42.2°F5.7°C 55% 4.6 mph E7.4 kmh E 15.0 mph24.1 kmh 30.36 in1028.1 mb 0.00 in0.0 mm 0.00 in0.0 mm 0.00 in0.0 mm
03:55 PM 58.1°F14.5°C 41.6°F5.3°C 54% 9.6 mph E15.4 kmh E 15.0 mph24.1 kmh 30.36 in1028.1 mb 0.00 in0.0 mm 0.00 in0.0 mm 0.00 in0.0 mm
04:00 PM 58.1°F14.5°C 42.1°F5.6°C 55% 4.6 mph E7.4 kmh E 13.0 mph20.9 kmh 30.36 in1028.1 mb 0.00 in0.0 mm 0.00 in0.0 mm 0.00 in0.0 mm
04:05 PM 58.0°F14.4°C 42.0°F5.6°C 55% 4.5 mph ENE7.2 kmh ENE 13.0 mph20.9 kmh 30.37 in1028.4 mb 0.00 in0.0 mm 0.00 in0.0 mm 0.00 in0.0 mm
04:10 PM 57.9°F14.4°C 41.9°F5.5°C 55% 5.5 mph E8.9 kmh E 13.0 mph20.9 kmh 30.37 in1028.4 mb 0.00 in0.0 mm 0.00 in0.0 mm 0.00 in0.0 mm
04:15 PM 57.9°F14.4°C 42.4°F5.8°C 56% 4.8 mph ENE7.7 kmh ENE 12.0 mph19.3 kmh 30.36 in1028.1 mb 0.00 in0.0 mm 0.00 in0.0 mm 0.00 in0.0 mm
04:21 PM 57.6°F14.2°C 42.1°F5.6°C 56% 3.5 mph ENE5.6 kmh ENE 10.0 mph16.1 kmh 30.36 in1028.1 mb 0.00 in0.0 mm 0.00 in0.0 mm 0.00 in0.0 mm
04:26 PM 57.5°F14.2°C 41.9°F5.5°C 56% 4.4 mph ENE7.1 kmh ENE 10.0 mph16.1 kmh 30.36 in1028.1 mb 0.00 in0.0 mm 0.00 in0.0 mm 0.00 in0.0 mm
04:31 PM 57.5°F14.2°C 41.9°F5.5°C 56% 5.7 mph E9.2 kmh E 10.0 mph16.1 kmh 30.36 in1028.1 mb 0.00 in0.0 mm 0.00 in0.0 mm 0.00 in0.0 mm
04:36 PM 57.5°F14.2°C 42.4°F5.8°C 57% 6.3 mph E10.1 kmh E 11.0 mph17.7 kmh 30.36 in1028.1 mb 0.00 in0.0 mm 0.00 in0.0 mm 0.00 in0.0 mm
04:41 PM 57.3°F14.1°C 42.3°F5.7°C 57% 6.6 mph ENE10.6 kmh ENE 11.0 mph17.7 kmh 30.36 in1028.1 mb 0.00 in0.0 mm 0.00 in0.0 mm 0.00 in0.0 mm
04:47 PM 57.3°F14.1°C 42.3°F5.7°C 57% 4.9 mph ENE7.9 kmh ENE 11.0 mph17.7 kmh 30.36 in1028.1 mb 0.00 in0.0 mm 0.00 in0.0 mm 0.00 in0.0 mm
04:52 PM 57.1°F13.9°C 42.1°F5.6°C 57% 3.9 mph E6.3 kmh E 11.0 mph17.7 kmh 30.36 in1028.1 mb 0.00 in0.0 mm 0.00 in0.0 mm 0.00 in0.0 mm
04:57 PM 57.0°F13.9°C 42.0°F5.6°C 57% 6.5 mph E10.5 kmh E 11.0 mph17.7 kmh 30.36 in1028.1 mb 0.00 in0.0 mm 0.00 in0.0 mm 0.00 in0.0 mm
05:02 PM 56.9°F13.8°C 41.9°F5.5°C 57% 5.5 mph E8.9 kmh E 11.0 mph17.7 kmh 30.36 in1028.1 mb 0.00 in0.0 mm 0.00 in0.0 mm 0.00 in0.0 mm
05:07 PM 56.8°F13.8°C 42.3°F5.7°C 58% 1.7 mph E2.7 kmh E 11.0 mph17.7 kmh 30.36 in1028.1 mb 0.00 in0.0 mm 0.00 in0.0 mm 0.00 in0.0 mm
05:13 PM 56.6°F13.7°C 42.1°F5.6°C 58% 4.1 mph ENE6.6 kmh ENE 11.0 mph17.7 kmh 30.36 in1028.1 mb 0.00 in0.0 mm 0.00 in0.0 mm 0.00 in0.0 mm
05:18 PM 56.4°F13.6°C 42.4°F5.8°C 59% 2.6 mph ENE4.2 kmh ENE 11.0 mph17.7 kmh 30.36 in1028.1 mb 0.00 in0.0 mm 0.00 in0.0 mm 0.00 in0.0 mm
05:23 PM 56.2°F13.4°C 42.1°F5.6°C 59% 3.3 mph E5.3 kmh E 8.0 mph12.9 kmh 30.36 in1028.1 mb 0.00 in0.0 mm 0.00 in0.0 mm 0.00 in0.0 mm
05:28 PM 56.0°F13.3°C 42.4°F5.8°C 60% 2.7 mph ENE4.3 kmh ENE 8.0 mph12.9 kmh 30.36 in1028.1 mb 0.00 in0.0 mm 0.00 in0.0 mm 0.00 in0.0 mm
05:33 PM 55.8°F13.2°C 42.2°F5.7°C 60% 3.1 mph ENE5.0 kmh ENE 7.0 mph11.3 kmh 30.36 in1028.1 mb 0.00 in0.0 mm 0.00 in0.0 mm 0.00 in0.0 mm
05:39 PM 55.7°F13.2°C 42.1°F5.6°C 60% 3.5 mph ENE5.6 kmh ENE 7.0 mph11.3 kmh 30.36 in1028.1 mb 0.00 in0.0 mm 0.00 in0.0 mm 0.00 in0.0 mm
05:44 PM 55.4°F13.0°C 42.3°F5.7°C 61% 1.8 mph ENE2.9 kmh ENE 7.0 mph11.3 kmh 30.36 in1028.1 mb 0.00 in0.0 mm 0.00 in0.0 mm 0.00 in0.0 mm
05:49 PM 55.2°F12.9°C 42.0°F5.6°C 61% 2.8 mph ENE4.5 kmh ENE 7.0 mph11.3 kmh 30.36 in1028.1 mb 0.00 in0.0 mm 0.00 in0.0 mm 0.00 in0.0 mm
05:54 PM 55.0°F12.8°C 41.8°F5.4°C 61% 2.7 mph ENE4.3 kmh ENE 7.0 mph11.3 kmh 30.36 in1028.1 mb 0.00 in0.0 mm 0.00 in0.0 mm 0.00 in0.0 mm
05:59 PM 54.9°F12.7°C 42.1°F5.6°C 62% 1.5 mph NE2.4 kmh NE 7.0 mph11.3 kmh 30.36 in1028.1 mb 0.00 in0.0 mm 0.00 in0.0 mm 0.00 in0.0 mm
06:05 PM 54.7°F12.6°C 42.1°F5.6°C 62% 2.6 mph ENE4.2 kmh ENE 7.0 mph11.3 kmh 30.36 in1028.1 mb 0.00 in0.0 mm 0.00 in0.0 mm 0.00 in0.0 mm
06:10 PM 54.6°F12.6°C 42.0°F5.6°C 62% 2.7 mph ENE4.3 kmh ENE 9.0 mph14.5 kmh 30.36 in1028.1 mb 0.00 in0.0 mm 0.00 in0.0 mm 0.00 in0.0 mm
06:15 PM 54.4°F12.4°C 42.2°F5.7°C 63% 2.7 mph ENE4.3 kmh ENE 9.0 mph14.5 kmh 30.36 in1028.1 mb 0.00 in0.0 mm 0.00 in0.0 mm 0.00 in0.0 mm
06:20 PM 54.3°F12.4°C 42.1°F5.6°C 63% 3.0 mph ENE4.8 kmh ENE 9.0 mph14.5 kmh 30.37 in1028.4 mb 0.00 in0.0 mm 0.00 in0.0 mm 0.00 in0.0 mm
06:25 PM 54.2°F12.3°C 42.0°F5.6°C 63% 4.2 mph ENE6.8 kmh ENE 9.0 mph14.5 kmh 30.37 in1028.4 mb 0.00 in0.0 mm 0.00 in0.0 mm 0.00 in0.0 mm
06:31 PM 54.1°F12.3°C 41.8°F5.4°C 63% 2.9 mph ENE4.7 kmh ENE 9.0 mph14.5 kmh 30.37 in1028.4 mb 0.00 in0.0 mm 0.00 in0.0 mm 0.00 in0.0 mm
06:36 PM 53.9°F12.2°C 41.7°F5.4°C 63% 4.8 mph ENE7.7 kmh ENE 9.0 mph14.5 kmh 30.36 in1028.1 mb 0.00 in0.0 mm 0.00 in0.0 mm 0.00 in0.0 mm
06:41 PM 53.7°F12.1°C 41.9°F5.5°C 64% 3.6 mph ENE5.8 kmh ENE 11.0 mph17.7 kmh 30.36 in1028.1 mb 0.00 in0.0 mm 0.00 in0.0 mm 0.00 in0.0 mm
06:46 PM 53.6°F12.0°C 41.8°F5.4°C 64% 5.5 mph ENE8.9 kmh ENE 11.0 mph17.7 kmh 30.36 in1028.1 mb 0.00 in0.0 mm 0.00 in0.0 mm 0.00 in0.0 mm
06:51 PM 53.5°F11.9°C 41.7°F5.4°C 64% 4.6 mph ENE7.4 kmh ENE 11.0 mph17.7 kmh 30.37 in1028.4 mb 0.00 in0.0 mm 0.00 in0.0 mm 0.00 in0.0 mm
06:57 PM 53.4°F11.9°C 41.6°F5.3°C 64% 5.1 mph ENE8.2 kmh ENE 10.0 mph16.1 kmh 30.37 in1028.4 mb 0.00 in0.0 mm 0.00 in0.0 mm 0.00 in0.0 mm
07:02 PM 53.3°F11.8°C 41.6°F5.3°C 64% 3.7 mph NE6.0 kmh NE 10.0 mph16.1 kmh 30.37 in1028.4 mb 0.00 in0.0 mm 0.00 in0.0 mm 0.00 in0.0 mm
07:07 PM 53.1°F11.7°C 41.4°F5.2°C 64% 3.6 mph ENE5.8 kmh ENE 10.0 mph16.1 kmh 30.37 in1028.4 mb 0.00 in0.0 mm 0.00 in0.0 mm 0.00 in0.0 mm
07:12 PM 52.9°F11.6°C 41.6°F5.3°C 65% 4.3 mph ENE6.9 kmh ENE 9.0 mph14.5 kmh 30.37 in1028.4 mb 0.00 in0.0 mm 0.00 in0.0 mm 0.00 in0.0 mm
07:16 PM 52.7°F11.5°C 41.4°F5.2°C 65% 2.5 mph ENE4.0 kmh ENE 9.0 mph14.5 kmh 30.37 in1028.4 mb 0.00 in0.0 mm 0.00 in0.0 mm 0.00 in0.0 mm
07:22 PM 52.5°F11.4°C 41.6°F5.3°C 66% 5.4 mph NE8.7 kmh NE 9.0 mph14.5 kmh 30.37 in1028.4 mb 0.00 in0.0 mm 0.00 in0.0 mm 0.00 in0.0 mm
07:27 PM 52.2°F11.2°C 41.2°F5.1°C 66% 3.7 mph ENE6.0 kmh ENE 9.0 mph14.5 kmh 30.37 in1028.4 mb 0.00 in0.0 mm 0.00 in0.0 mm 0.00 in0.0 mm
07:32 PM 52.2°F11.2°C 41.3°F5.2°C 66% 4.4 mph NE7.1 kmh NE 13.0 mph20.9 kmh 30.38 in1028.8 mb 0.00 in0.0 mm 0.00 in0.0 mm 0.00 in0.0 mm
07:37 PM 52.0°F11.1°C 41.0°F5.0°C 66% 2.8 mph ENE4.5 kmh ENE 13.0 mph20.9 kmh 30.38 in1028.8 mb 0.00 in0.0 mm 0.00 in0.0 mm 0.00 in0.0 mm
07:42 PM 51.8°F11.0°C 41.3°F5.2°C 67% 3.1 mph ENE5.0 kmh ENE 13.0 mph20.9 kmh 30.38 in1028.8 mb 0.00 in0.0 mm 0.00 in0.0 mm 0.00 in0.0 mm
07:48 PM 51.6°F10.9°C 41.1°F5.1°C 67% 3.8 mph ENE6.1 kmh ENE 12.0 mph19.3 kmh 30.39 in1029.1 mb 0.00 in0.0 mm 0.00 in0.0 mm 0.00 in0.0 mm
07:53 PM 51.7°F10.9°C 40.8°F4.9°C 66% 3.4 mph ENE5.5 kmh ENE 9.0 mph14.5 kmh 30.39 in1029.1 mb 0.00 in0.0 mm 0.00 in0.0 mm 0.00 in0.0 mm
07:58 PM 51.7°F10.9°C 40.8°F4.9°C 66% 5.1 mph E8.2 kmh E 9.0 mph14.5 kmh 30.38 in1028.8 mb 0.00 in0.0 mm 0.00 in0.0 mm 0.00 in0.0 mm
08:03 PM 51.7°F10.9°C 40.4°F4.7°C 65% 3.9 mph E6.3 kmh E 12.0 mph19.3 kmh 30.38 in1028.8 mb 0.00 in0.0 mm 0.00 in0.0 mm 0.00 in0.0 mm
08:08 PM 51.7°F10.9°C 40.4°F4.7°C 65% 4.0 mph ENE6.4 kmh ENE 13.0 mph20.9 kmh 30.39 in1029.1 mb 0.00 in0.0 mm 0.00 in0.0 mm 0.00 in0.0 mm
08:14 PM 51.6°F10.9°C 40.3°F4.6°C 65% 3.9 mph E6.3 kmh E 13.0 mph20.9 kmh 30.39 in1029.1 mb 0.00 in0.0 mm 0.00 in0.0 mm 0.00 in0.0 mm
08:19 PM 51.5°F10.8°C 40.2°F4.6°C 65% 5.4 mph E8.7 kmh E 13.0 mph20.9 kmh 30.39 in1029.1 mb 0.00 in0.0 mm 0.00 in0.0 mm 0.00 in0.0 mm
08:24 PM 51.6°F10.9°C 40.3°F4.6°C 65% 3.8 mph E6.1 kmh E 11.0 mph17.7 kmh 30.39 in1029.1 mb 0.00 in0.0 mm 0.00 in0.0 mm 0.00 in0.0 mm
08:29 PM 51.6°F10.9°C 40.3°F4.6°C 65% 5.8 mph E9.3 kmh E 12.0 mph19.3 kmh 30.39 in1029.1 mb 0.00 in0.0 mm 0.00 in0.0 mm 0.00 in0.0 mm
08:34 PM 51.6°F10.9°C 40.3°F4.6°C 65% 6.6 mph ENE10.6 kmh ENE 12.0 mph19.3 kmh 30.39 in1029.1 mb 0.00 in0.0 mm 0.00 in0.0 mm 0.00 in0.0 mm
08:40 PM 51.6°F10.9°C 40.3°F4.6°C 65% 7.1 mph E11.4 kmh E 12.0 mph19.3 kmh 30.39 in1029.1 mb 0.00 in0.0 mm 0.00 in0.0 mm 0.00 in0.0 mm
08:45 PM 51.4°F10.8°C 40.5°F4.7°C 66% 2.7 mph ENE4.3 kmh ENE 12.0 mph19.3 kmh 30.39 in1029.1 mb 0.00 in0.0 mm 0.00 in0.0 mm 0.00 in0.0 mm
08:50 PM 51.3°F10.7°C 40.4°F4.7°C 66% 5.9 mph E9.5 kmh E 12.0 mph19.3 kmh 30.38 in1028.8 mb 0.00 in0.0 mm 0.00 in0.0 mm 0.00 in0.0 mm
08:55 PM 51.1°F10.6°C 40.2°F4.6°C 66% 5.3 mph ENE8.5 kmh ENE 12.0 mph19.3 kmh 30.38 in1028.8 mb 0.00 in0.0 mm 0.00 in0.0 mm 0.00 in0.0 mm
09:00 PM 51.0°F10.6°C 40.2°F4.6°C 66% 6.1 mph NE9.8 kmh NE 12.0 mph19.3 kmh 30.38 in1028.8 mb 0.00 in0.0 mm 0.00 in0.0 mm 0.00 in0.0 mm
09:06 PM 50.9°F10.5°C 40.1°F4.5°C 66% 6.3 mph ENE10.1 kmh ENE 14.0 mph22.5 kmh 30.38 in1028.8 mb 0.00 in0.0 mm 0.00 in0.0 mm 0.00 in0.0 mm
09:11 PM 51.0°F10.6°C 40.2°F4.6°C 66% 6.1 mph ENE9.8 kmh ENE 14.0 mph22.5 kmh 30.38 in1028.8 mb 0.00 in0.0 mm 0.00 in0.0 mm 0.00 in0.0 mm
09:16 PM 50.9°F10.5°C 39.7°F4.3°C 65% 6.3 mph E10.1 kmh E 15.0 mph24.1 kmh 30.38 in1028.8 mb 0.00 in0.0 mm 0.00 in0.0 mm 0.00 in0.0 mm
09:21 PM 50.8°F10.4°C 39.6°F4.2°C 65% 7.1 mph E11.4 kmh E 15.0 mph24.1 kmh 30.38 in1028.8 mb 0.00 in0.0 mm 0.00 in0.0 mm 0.00 in0.0 mm
09:26 PM 50.8°F10.4°C 39.6°F4.2°C 65% 5.6 mph ENE9.0 kmh ENE 15.0 mph24.1 kmh 30.38 in1028.8 mb 0.00 in0.0 mm 0.00 in0.0 mm 0.00 in0.0 mm
09:32 PM 50.7°F10.4°C 39.5°F4.2°C 65% 6.9 mph ENE11.1 kmh ENE 14.0 mph22.5 kmh 30.38 in1028.8 mb 0.00 in0.0 mm 0.00 in0.0 mm 0.00 in0.0 mm
09:37 PM 50.7°F10.4°C 39.5°F4.2°C 65% 8.3 mph E13.4 kmh E 14.0 mph22.5 kmh 30.38 in1028.8 mb 0.00 in0.0 mm 0.00 in0.0 mm 0.00 in0.0 mm
09:42 PM 50.7°F10.4°C 39.9°F4.4°C 66% 4.6 mph E7.4 kmh E 14.0 mph22.5 kmh 30.38 in1028.8 mb 0.00 in0.0 mm 0.00 in0.0 mm 0.00 in0.0 mm
09:47 PM 50.6°F10.3°C 39.8°F4.3°C 66% 6.1 mph E9.8 kmh E 14.0 mph22.5 kmh 30.38 in1028.8 mb 0.00 in0.0 mm 0.00 in0.0 mm 0.00 in0.0 mm
09:52 PM 50.6°F10.3°C 39.4°F4.1°C 65% 4.6 mph E7.4 kmh E 14.0 mph22.5 kmh 30.38 in1028.8 mb 0.00 in0.0 mm 0.00 in0.0 mm 0.00 in0.0 mm
09:58 PM 50.5°F10.3°C 39.7°F4.3°C 66% 3.8 mph E6.1 kmh E 12.0 mph19.3 kmh 30.38 in1028.8 mb 0.00 in0.0 mm 0.00 in0.0 mm 0.00 in0.0 mm
10:03 PM 50.4°F10.2°C 39.2°F4.0°C 65% 4.8 mph E7.7 kmh E 12.0 mph19.3 kmh 30.38 in1028.8 mb 0.00 in0.0 mm 0.00 in0.0 mm 0.00 in0.0 mm
10:08 PM 50.3°F10.2°C 39.0°F3.9°C 65% 6.5 mph E10.5 kmh E 12.0 mph19.3 kmh 30.38 in1028.8 mb 0.00 in0.0 mm 0.00 in0.0 mm 0.00 in0.0 mm
10:13 PM 50.3°F10.2°C 39.0°F3.9°C 65% 2.8 mph E4.5 kmh E 12.0 mph19.3 kmh 30.38 in1028.8 mb 0.00 in0.0 mm 0.00 in0.0 mm 0.00 in0.0 mm
10:18 PM 50.3°F10.2°C 39.1°F3.9°C 65% 3.0 mph E4.8 kmh E 12.0 mph19.3 kmh 30.39 in1029.1 mb 0.00 in0.0 mm 0.00 in0.0 mm 0.00 in0.0 mm
10:24 PM 50.4°F10.2°C 38.8°F3.8°C 64% 2.5 mph E4.0 kmh E 12.0 mph19.3 kmh 30.39 in1029.1 mb 0.00 in0.0 mm 0.00 in0.0 mm 0.00 in0.0 mm
10:29 PM 50.4°F10.2°C 38.7°F3.7°C 64% 2.6 mph ENE4.2 kmh ENE 10.0 mph16.1 kmh 30.39 in1029.1 mb 0.00 in0.0 mm 0.00 in0.0 mm 0.00 in0.0 mm
10:34 PM 50.4°F10.2°C 38.7°F3.7°C 64% 5.9 mph ENE9.5 kmh ENE 10.0 mph16.1 kmh 30.38 in1028.8 mb 0.00 in0.0 mm 0.00 in0.0 mm 0.00 in0.0 mm
10:39 PM 50.4°F10.2°C 38.7°F3.7°C 64% 3.4 mph NE5.5 kmh NE 10.0 mph16.1 kmh 30.39 in1029.1 mb 0.00 in0.0 mm 0.00 in0.0 mm 0.00 in0.0 mm
10:44 PM 50.4°F10.2°C 38.8°F3.8°C 64% 3.3 mph ENE5.3 kmh ENE 10.0 mph16.1 kmh 30.39 in1029.1 mb 0.00 in0.0 mm 0.00 in0.0 mm 0.00 in0.0 mm
10:50 PM 50.5°F10.3°C 38.9°F3.8°C 64% 3.9 mph ENE6.3 kmh ENE 10.0 mph16.1 kmh 30.39 in1029.1 mb 0.00 in0.0 mm 0.00 in0.0 mm 0.00 in0.0 mm
10:55 PM 50.4°F10.2°C 38.4°F3.6°C 63% 3.3 mph ENE5.3 kmh ENE 9.0 mph14.5 kmh 30.39 in1029.1 mb 0.00 in0.0 mm 0.00 in0.0 mm 0.00 in0.0 mm
11:00 PM 50.4°F10.2°C 38.4°F3.6°C 63% 5.1 mph E8.2 kmh E 10.0 mph16.1 kmh 30.40 in1029.5 mb 0.00 in0.0 mm 0.00 in0.0 mm 0.00 in0.0 mm
11:05 PM 50.4°F10.2°C 38.0°F3.3°C 62% 3.9 mph ENE6.3 kmh ENE 10.0 mph16.1 kmh 30.40 in1029.5 mb 0.00 in0.0 mm 0.00 in0.0 mm 0.00 in0.0 mm
11:10 PM 50.4°F10.2°C 38.4°F3.6°C 63% 3.0 mph ENE4.8 kmh ENE 10.0 mph16.1 kmh 30.40 in1029.5 mb 0.00 in0.0 mm 0.00 in0.0 mm 0.00 in0.0 mm
11:16 PM 50.3°F10.2°C 37.8°F3.2°C 62% 2.6 mph ENE4.2 kmh ENE 10.0 mph16.1 kmh 30.40 in1029.5 mb 0.00 in0.0 mm 0.00 in0.0 mm 0.00 in0.0 mm
11:21 PM 50.3°F10.2°C 37.8°F3.2°C 62% 3.8 mph ENE6.1 kmh ENE 10.0 mph16.1 kmh 30.40 in1029.5 mb 0.00 in0.0 mm 0.00 in0.0 mm 0.00 in0.0 mm
11:26 PM 50.3°F10.2°C 37.9°F3.3°C 62% 4.2 mph ENE6.8 kmh ENE 9.0 mph14.5 kmh 30.40 in1029.5 mb 0.00 in0.0 mm 0.00 in0.0 mm 0.00 in0.0 mm
11:31 PM 50.3°F10.2°C 37.9°F3.3°C 62% 2.4 mph ENE3.9 kmh ENE 10.0 mph16.1 kmh 30.40 in1029.5 mb 0.00 in0.0 mm 0.00 in0.0 mm 0.00 in0.0 mm
11:36 PM 50.3°F10.2°C 37.9°F3.3°C 62% 5.9 mph ENE9.5 kmh ENE 11.0 mph17.7 kmh 30.40 in1029.5 mb 0.00 in0.0 mm 0.00 in0.0 mm 0.00 in0.0 mm
11:42 PM 50.2°F10.1°C 37.8°F3.2°C 62% 6.0 mph E9.7 kmh E 11.0 mph17.7 kmh 30.40 in1029.5 mb 0.00 in0.0 mm 0.00 in0.0 mm 0.00 in0.0 mm
11:47 PM 50.0°F10.0°C 37.6°F3.1°C 62% 2.8 mph ENE4.5 kmh ENE 11.0 mph17.7 kmh 30.39 in1029.1 mb 0.00 in0.0 mm 0.00 in0.0 mm 0.00 in0.0 mm
11:52 PM 49.9°F9.9°C 37.5°F3.1°C 62% 5.4 mph ENE8.7 kmh ENE 11.0 mph17.7 kmh 30.38 in1028.8 mb 0.00 in0.0 mm 0.00 in0.0 mm 0.00 in0.0 mm
11:57 PM 49.8°F9.9°C 37.4°F3.0°C 62% 3.0 mph ENE4.8 kmh ENE 11.0 mph17.7 kmh 30.38 in1028.8 mb 0.00 in0.0 mm 0.00 in0.0 mm 0.00 in0.0 mm